createdAt,value
2018-10-18T00:00:29.411Z,36.13
2018-10-18T00:02:58.863Z,36.90
2018-10-18T00:05:27.822Z,37.10
2018-10-18T00:07:56.714Z,36.83
2018-10-18T00:10:25.546Z,33.73
2018-10-18T00:12:54.483Z,35.27
2018-10-18T00:15:23.303Z,34.10
2018-10-18T00:17:52.131Z,34.43
2018-10-18T00:20:20.960Z,33.70
2018-10-18T00:22:49.799Z,36.63
2018-10-18T00:25:18.647Z,36.27
2018-10-18T00:27:47.455Z,36.87
2018-10-18T00:30:16.348Z,38.13
2018-10-18T00:32:45.178Z,36.00
2018-10-18T00:35:13.961Z,37.97
2018-10-18T00:37:43.119Z,40.47
2018-10-18T00:40:12.531Z,39.17
2018-10-18T00:42:41.906Z,38.43
2018-10-18T00:45:10.766Z,39.97
2018-10-18T00:47:39.645Z,39.23
2018-10-18T00:50:10.110Z,39.37
2018-10-18T00:52:38.950Z,40.47
2018-10-18T00:55:09.431Z,38.77
2018-10-18T00:57:38.627Z,40.17
2018-10-18T01:00:09.346Z,37.97
2018-10-18T01:02:38.528Z,40.13
2018-10-18T01:05:07.458Z,39.07
2018-10-18T01:07:36.246Z,40.83
2018-10-18T01:10:05.162Z,39.73
2018-10-18T01:12:34.030Z,38.93
2018-10-18T01:15:02.803Z,39.53
2018-10-18T01:17:31.610Z,37.83
2018-10-18T01:20:00.455Z,40.03
2018-10-18T01:22:29.329Z,39.20
2018-10-18T01:24:58.153Z,41.43
2018-10-18T01:27:26.972Z,39.53
2018-10-18T01:29:55.787Z,44.97
2018-10-18T01:32:24.691Z,41.63
2018-10-18T01:34:53.483Z,42.70
2018-10-18T01:37:22.295Z,43.90
2018-10-18T01:39:51.151Z,42.20
2018-10-18T01:42:20.119Z,41.90
2018-10-18T01:44:48.895Z,44.70
2018-10-18T01:47:17.705Z,41.60
2018-10-18T01:49:46.498Z,41.57
2018-10-18T01:52:15.552Z,40.80
2018-10-18T01:54:44.342Z,42.00
2018-10-18T01:57:13.148Z,39.57
2018-10-18T01:59:41.978Z,40.17
2018-10-18T02:02:10.995Z,39.80
2018-10-18T02:04:39.775Z,44.23
2018-10-18T02:07:08.594Z,42.70
2018-10-18T02:09:37.412Z,40.27
2018-10-18T02:12:06.714Z,39.17
2018-10-18T02:14:35.419Z,37.60
2018-10-18T02:17:04.391Z,37.43
2018-10-18T02:19:33.187Z,38.70
2018-10-18T02:22:02.029Z,35.03
2018-10-18T02:24:30.846Z,35.87
2018-10-18T02:26:59.709Z,39.23
2018-10-18T02:29:28.517Z,35.77
2018-10-18T02:31:57.355Z,36.57
2018-10-18T02:34:26.163Z,35.07
2018-10-18T02:36:54.972Z,34.90
2018-10-18T02:39:23.783Z,33.40
2018-10-18T02:41:53.084Z,35.00
2018-10-18T02:44:21.876Z,35.33
2018-10-18T02:46:50.643Z,31.63
2018-10-18T02:49:19.422Z,33.07
2018-10-18T02:51:48.302Z,34.30
2018-10-18T02:54:17.230Z,31.53
2018-10-18T02:56:45.923Z,32.97
2018-10-18T02:59:16.310Z,30.70
2018-10-18T03:01:45.191Z,28.20
2018-10-18T03:04:14.011Z,29.70
2018-10-18T03:06:42.807Z,29.37
2018-10-18T03:09:12.286Z,30.87
2018-10-18T03:11:41.511Z,28.03
2018-10-18T03:14:10.311Z,29.03
2018-10-18T03:16:39.103Z,29.20
2018-10-18T03:19:07.878Z,31.30
2018-10-18T03:21:36.700Z,30.00
2018-10-18T03:24:05.780Z,28.20
2018-10-18T03:26:34.523Z,29.57
2018-10-18T03:29:03.343Z,27.40
2018-10-18T03:31:32.173Z,28.87
2018-10-18T03:34:01.070Z,26.90
2018-10-18T03:36:29.928Z,26.13
2018-10-18T03:38:58.751Z,26.20
2018-10-18T03:41:27.583Z,26.77
2018-10-18T03:43:56.398Z,28.30
2018-10-18T03:46:25.242Z,29.40
2018-10-18T03:48:54.046Z,30.37
2018-10-18T03:51:22.854Z,27.93
2018-10-18T03:53:51.754Z,28.10
2018-10-18T03:56:21.427Z,26.73
2018-10-18T03:58:50.244Z,26.77
2018-10-18T04:01:19.094Z,27.13
2018-10-18T04:03:47.981Z,25.80
2018-10-18T04:06:17.072Z,28.07
2018-10-18T04:08:46.098Z,26.87
2018-10-18T04:11:14.954Z,27.67
2018-10-18T04:13:43.815Z,27.90
2018-10-18T04:16:12.678Z,24.20
2018-10-18T04:18:41.503Z,25.33
2018-10-18T04:21:10.335Z,25.43
2018-10-18T04:23:39.191Z,25.10
2018-10-18T04:26:08.003Z,23.37
2018-10-18T04:28:36.862Z,24.80
2018-10-18T04:31:05.715Z,27.07
2018-10-18T04:33:34.632Z,24.00
2018-10-18T04:36:03.464Z,23.63
2018-10-18T04:38:33.265Z,24.53
2018-10-18T04:41:02.152Z,24.57
2018-10-18T04:43:31.006Z,26.33
2018-10-18T04:45:59.912Z,34.40
2018-10-18T04:48:28.746Z,30.63
2018-10-18T04:50:57.764Z,30.07
2018-10-18T04:53:26.684Z,26.33
2018-10-18T04:55:55.467Z,26.00
2018-10-18T04:58:24.283Z,25.93
2018-10-18T05:00:53.107Z,23.67
2018-10-18T05:03:21.963Z,24.47
2018-10-18T05:05:53.631Z,23.63
2018-10-18T05:08:23.559Z,23.53
2018-10-18T05:10:52.642Z,22.70
2018-10-18T05:13:21.583Z,23.60
2018-10-18T05:15:50.475Z,26.20
2018-10-18T05:18:19.715Z,25.50
2018-10-18T05:20:48.580Z,22.30
2018-10-18T05:23:17.477Z,23.27
2018-10-18T05:25:47.007Z,23.07
2018-10-18T05:28:15.871Z,21.77
2018-10-18T05:30:44.718Z,23.03
2018-10-18T05:33:13.782Z,19.70
2018-10-18T05:35:42.776Z,20.17
2018-10-18T05:38:11.664Z,23.60
2018-10-18T05:40:40.564Z,21.50
2018-10-18T05:43:09.497Z,19.80
2018-10-18T05:45:38.234Z,20.47
2018-10-18T05:48:07.167Z,19.90
2018-10-18T05:50:36.047Z,21.13
2018-10-18T05:53:05.262Z,22.10
2018-10-18T05:55:34.127Z,21.73
2018-10-18T05:58:03.060Z,23.00
2018-10-18T06:00:31.991Z,22.17
2018-10-18T06:03:00.927Z,22.47
2018-10-18T06:05:30.179Z,22.70
2018-10-18T06:07:59.170Z,21.00
2018-10-18T06:10:45.208Z,22.57
2018-10-18T06:13:14.288Z,22.03
2018-10-18T06:15:43.207Z,23.60
2018-10-18T06:18:12.151Z,22.23
2018-10-18T06:20:41.066Z,24.37
2018-10-18T06:23:10.851Z,22.47
2018-10-18T06:25:39.835Z,22.93
2018-10-18T06:28:08.758Z,23.03
2018-10-18T06:30:37.703Z,22.80
2018-10-18T06:33:06.728Z,24.43
2018-10-18T06:35:35.595Z,23.90
2018-10-18T06:38:04.563Z,22.93
2018-10-18T06:40:33.474Z,21.93
2018-10-18T06:43:02.479Z,22.33
2018-10-18T06:45:31.380Z,19.77
2018-10-18T06:48:00.281Z,21.97
2018-10-18T06:50:29.107Z,23.00
2018-10-18T06:52:58.091Z,22.13
2018-10-18T06:55:26.963Z,23.00
2018-10-18T06:57:55.858Z,22.00
2018-10-18T07:00:31.971Z,24.63
2018-10-18T07:03:00.849Z,22.90
2018-10-18T07:05:29.755Z,23.73
2018-10-18T07:07:58.631Z,24.27
2018-10-18T07:10:27.621Z,25.23
2018-10-18T07:12:56.661Z,23.53
2018-10-18T07:15:25.575Z,22.87
2018-10-18T07:17:54.488Z,23.97
2018-10-18T07:20:23.404Z,22.83
2018-10-18T07:22:52.388Z,23.83
2018-10-18T07:25:21.318Z,23.80
2018-10-18T07:27:50.203Z,22.60
2018-10-18T07:30:19.166Z,23.03
2018-10-18T07:32:48.150Z,25.27
2018-10-18T07:35:17.024Z,24.73
2018-10-18T07:37:45.881Z,25.70
2018-10-18T07:40:15.603Z,26.90
2018-10-18T07:42:44.689Z,23.83
2018-10-18T07:45:14.199Z,25.77
2018-10-18T07:47:43.795Z,26.27
2018-10-18T07:50:12.895Z,24.70
2018-10-18T07:52:41.801Z,26.10
2018-10-18T07:55:10.958Z,27.10
2018-10-18T07:57:51.915Z,28.07
2018-10-18T08:00:23.102Z,27.03
2018-10-18T08:02:55.202Z,26.20
2018-10-18T08:05:24.103Z,30.43
2018-10-18T08:07:52.966Z,25.67
2018-10-18T08:10:21.843Z,26.93
2018-10-18T08:12:50.755Z,24.97
2018-10-18T08:15:19.661Z,28.23
2018-10-18T08:17:48.562Z,28.20
2018-10-18T08:20:17.439Z,24.90
2018-10-18T08:22:46.322Z,30.40
2018-10-18T08:25:15.250Z,25.33
2018-10-18T08:27:44.127Z,26.53
2018-10-18T08:30:13.570Z,28.27
2018-10-18T08:32:42.495Z,27.20
2018-10-18T08:35:12.081Z,27.83
2018-10-18T08:37:41.124Z,29.40
2018-10-18T08:40:09.969Z,27.03
2018-10-18T08:42:38.883Z,26.13
2018-10-18T08:45:09.283Z,24.90
2018-10-18T08:47:38.260Z,27.27
2018-10-18T08:50:08.595Z,27.30
2018-10-18T08:52:37.761Z,25.33
2018-10-18T08:55:09.406Z,29.23
2018-10-18T08:57:38.251Z,30.03
2018-10-18T09:00:08.554Z,28.20
2018-10-18T09:02:38.279Z,27.23
2018-10-18T09:05:07.567Z,29.07
2018-10-18T09:07:36.987Z,30.70
2018-10-18T09:10:06.778Z,28.17
2018-10-18T09:12:36.127Z,30.80
2018-10-18T09:15:06.758Z,28.23
2018-10-18T09:17:35.908Z,28.30
2018-10-18T09:20:05.416Z,32.87
2018-10-18T09:22:34.423Z,31.37
2018-10-18T09:25:03.425Z,29.63
2018-10-18T09:27:32.343Z,29.77
2018-10-18T09:30:01.273Z,28.33
2018-10-18T09:32:30.679Z,31.33
2018-10-18T09:34:59.581Z,32.03
2018-10-18T09:37:28.462Z,30.63
2018-10-18T09:39:57.361Z,32.17
2018-10-18T09:42:26.254Z,31.47
2018-10-18T09:44:55.142Z,33.53
2018-10-18T09:47:24.103Z,35.07
2018-10-18T09:49:52.988Z,35.17
2018-10-18T09:52:21.980Z,35.77
2018-10-18T09:54:50.871Z,35.63
2018-10-18T09:57:19.792Z,36.70
2018-10-18T09:59:48.675Z,39.93
2018-10-18T10:02:23.319Z,38.93
2018-10-18T10:04:52.211Z,38.63
2018-10-18T10:07:21.106Z,36.37
2018-10-18T10:09:49.979Z,38.23
2018-10-18T10:12:18.991Z,40.33
2018-10-18T10:14:47.954Z,38.07
2018-10-18T10:17:16.982Z,41.03
2018-10-18T10:19:45.807Z,39.20
2018-10-18T10:22:14.770Z,40.20
2018-10-18T10:24:43.805Z,40.07
2018-10-18T10:27:12.602Z,40.07
2018-10-18T10:29:41.483Z,40.60
2018-10-18T10:32:10.463Z,38.70
2018-10-18T10:34:39.338Z,39.47
2018-10-18T10:37:08.334Z,41.40
2018-10-18T10:39:37.138Z,41.73
2018-10-18T10:42:06.988Z,39.70
2018-10-18T10:44:35.891Z,40.23
2018-10-18T10:47:05.491Z,42.87
2018-10-18T10:49:34.354Z,43.20
2018-10-18T10:52:03.373Z,45.37
2018-10-18T10:54:32.253Z,42.17
2018-10-18T10:57:01.136Z,41.53
2018-10-18T10:59:30.012Z,42.20
2018-10-18T11:01:59.015Z,40.97
2018-10-18T11:04:27.874Z,40.67
2018-10-18T11:06:56.754Z,43.50
2018-10-18T11:09:25.772Z,43.10
2018-10-18T11:11:54.731Z,40.43
2018-10-18T11:14:23.537Z,43.00
2018-10-18T11:16:52.407Z,42.57
2018-10-18T11:19:21.322Z,43.37
2018-10-18T11:21:50.221Z,40.30
2018-10-18T11:24:19.245Z,43.20
2018-10-18T11:26:48.094Z,41.83
2018-10-18T11:29:16.962Z,39.87
2018-10-18T11:31:45.862Z,42.00
2018-10-18T11:34:14.772Z,43.77
2018-10-18T11:36:43.643Z,41.87
2018-10-18T11:39:12.515Z,41.53
2018-10-18T11:41:41.405Z,36.67
2018-10-18T11:44:10.411Z,40.07
2018-10-18T11:46:39.211Z,38.00
2018-10-18T11:49:08.099Z,40.97
2018-10-18T11:51:37.071Z,38.37
2018-10-18T11:54:06.080Z,40.20
2018-10-18T11:56:34.949Z,40.80
2018-10-18T11:59:07.335Z,42.17
2018-10-18T12:01:36.999Z,38.83
2018-10-18T12:04:05.962Z,39.47
2018-10-18T12:06:34.855Z,38.63
2018-10-18T12:09:06.163Z,38.20
2018-10-18T12:11:35.028Z,39.37
2018-10-18T12:14:04.702Z,41.00
2018-10-18T12:16:33.578Z,36.97
2018-10-18T12:19:02.612Z,38.97
2018-10-18T12:21:31.533Z,38.73
2018-10-18T12:24:00.459Z,37.97
2018-10-18T12:26:29.335Z,38.93
2018-10-18T12:28:58.258Z,39.13
2018-10-18T12:31:27.208Z,37.80
2018-10-18T12:33:56.116Z,37.93
2018-10-18T12:36:25.003Z,40.50
2018-10-18T12:38:53.894Z,38.93
2018-10-18T12:41:23.076Z,41.33
2018-10-18T12:43:51.781Z,38.10
2018-10-18T12:46:20.683Z,39.17
2018-10-18T12:48:49.543Z,39.93
2018-10-18T12:51:18.431Z,37.97
2018-10-18T12:53:47.346Z,39.43
2018-10-18T12:56:16.349Z,37.07
2018-10-18T12:58:45.300Z,39.60
2018-10-18T13:01:14.191Z,38.07
2018-10-18T13:03:43.147Z,36.53
2018-10-18T13:06:12.117Z,40.23
2018-10-18T13:08:41.703Z,39.47
2018-10-18T13:11:10.583Z,41.73
2018-10-18T13:13:39.476Z,41.77
2018-10-18T13:16:08.566Z,41.60
2018-10-18T13:18:37.440Z,38.37
2018-10-18T13:21:06.291Z,39.33
2018-10-18T13:23:35.291Z,38.80
2018-10-18T13:26:04.536Z,37.20
2018-10-18T13:28:33.432Z,41.40
2018-10-18T13:31:02.302Z,37.57
2018-10-18T13:33:31.279Z,39.97
2018-10-18T13:36:00.434Z,40.30
2018-10-18T13:38:29.347Z,37.53
2018-10-18T13:40:58.260Z,39.57
2018-10-18T13:43:27.398Z,38.30
2018-10-18T13:45:56.278Z,41.30
2018-10-18T13:48:25.156Z,40.27
2018-10-18T13:50:54.071Z,39.70
2018-10-18T13:53:23.579Z,41.13
2018-10-18T13:55:52.598Z,39.60
2018-10-18T13:58:21.480Z,41.80
2018-10-18T14:00:50.752Z,39.30
2018-10-18T14:03:19.871Z,40.37
2018-10-18T14:05:48.896Z,39.13
2018-10-18T14:08:17.765Z,39.40
2018-10-18T14:10:46.627Z,41.40
2018-10-18T14:13:15.663Z,40.93
2018-10-18T14:15:44.555Z,40.60
2018-10-18T14:18:13.472Z,42.07
2018-10-18T14:20:42.385Z,37.03
2018-10-18T14:23:11.447Z,40.80
2018-10-18T14:25:40.350Z,41.37
2018-10-18T14:28:09.267Z,38.03
2018-10-18T14:30:38.237Z,39.20
2018-10-18T14:33:07.197Z,39.50
2018-10-18T14:35:36.094Z,36.80
2018-10-18T14:38:05.174Z,42.53
2018-10-18T14:40:34.043Z,40.83
2018-10-18T14:43:03.001Z,40.43
2018-10-18T14:45:31.895Z,38.93
2018-10-18T14:48:00.816Z,37.67
2018-10-18T14:50:29.807Z,39.37
2018-10-18T14:52:58.727Z,36.73
2018-10-18T14:55:27.628Z,37.43
2018-10-18T14:57:56.668Z,39.77
2018-10-18T15:00:31.410Z,37.87
2018-10-18T15:03:00.452Z,40.40
2018-10-18T15:05:29.335Z,38.33
2018-10-18T15:07:58.287Z,38.97
2018-10-18T15:10:27.159Z,38.40
2018-10-18T15:12:56.078Z,39.00
2018-10-18T15:15:24.984Z,38.50
2018-10-18T15:17:53.922Z,39.23
2018-10-18T15:20:22.856Z,40.03
2018-10-18T15:22:55.194Z,35.07
2018-10-18T15:25:24.292Z,38.70
2018-10-18T15:27:53.191Z,38.50
2018-10-18T15:30:21.986Z,35.43
2018-10-18T15:32:50.891Z,37.87
2018-10-18T15:35:19.769Z,33.67
2018-10-18T15:37:48.694Z,37.47
2018-10-18T15:40:17.603Z,37.70
2018-10-18T15:42:46.539Z,36.53
2018-10-18T15:45:15.603Z,37.93
2018-10-18T15:47:44.444Z,37.67
2018-10-18T15:50:13.312Z,35.93
2018-10-18T15:52:42.382Z,37.23
2018-10-18T15:55:11.488Z,35.23
2018-10-18T15:57:40.367Z,37.60
2018-10-18T16:00:12.267Z,37.90
2018-10-18T16:02:42.262Z,39.30
2018-10-18T16:05:11.542Z,39.50
2018-10-18T16:07:40.388Z,42.67
2018-10-18T16:10:09.751Z,43.40
2018-10-18T16:12:39.063Z,44.30
2018-10-18T16:15:09.477Z,50.80
2018-10-18T16:17:38.392Z,49.93
2018-10-18T16:20:08.902Z,51.80
2018-10-18T16:22:38.518Z,52.70
2018-10-18T16:25:08.823Z,52.57
2018-10-18T16:27:37.771Z,52.30
2018-10-18T16:30:06.826Z,52.30
2018-10-18T16:32:36.122Z,53.73
2018-10-18T16:35:05.286Z,51.80
2018-10-18T16:37:34.126Z,51.63
2018-10-18T16:40:03.102Z,54.37
2018-10-18T16:42:32.015Z,53.97
2018-10-18T16:45:01.002Z,48.70
2018-10-18T16:47:29.876Z,46.40
2018-10-18T16:49:58.824Z,51.30
2018-10-18T16:52:27.683Z,47.07
2018-10-18T16:54:56.558Z,45.60
2018-10-18T16:57:25.439Z,45.47
2018-10-18T16:59:54.337Z,48.93
2018-10-18T17:02:23.852Z,50.67
2018-10-18T17:04:52.743Z,48.17
2018-10-18T17:07:21.706Z,48.47
2018-10-18T17:09:50.567Z,45.47
2018-10-18T17:12:19.661Z,46.33
2018-10-18T17:14:48.419Z,47.43
2018-10-18T17:17:17.307Z,49.17
2018-10-18T17:19:46.194Z,45.23
2018-10-18T17:22:15.250Z,46.70
2018-10-18T17:24:44.284Z,49.37
2018-10-18T17:27:13.273Z,49.20
2018-10-18T17:29:42.120Z,46.10
2018-10-18T17:32:12.235Z,48.67
2018-10-18T17:34:41.053Z,48.40
2018-10-18T17:37:10.063Z,46.97
2018-10-18T17:39:38.938Z,47.60
2018-10-18T17:42:07.945Z,48.07
2018-10-18T17:44:36.756Z,47.90
2018-10-18T17:47:05.751Z,48.03
2018-10-18T17:49:34.618Z,44.93
2018-10-18T17:52:03.646Z,49.90
2018-10-18T17:54:32.540Z,44.83
2018-10-18T17:57:01.451Z,45.30
2018-10-18T17:59:30.426Z,47.90
2018-10-18T18:01:59.459Z,48.30
2018-10-18T18:04:28.403Z,48.47
2018-10-18T18:06:57.362Z,49.93
2018-10-18T18:09:26.367Z,49.50
2018-10-18T18:11:55.239Z,48.90
2018-10-18T18:14:24.129Z,47.93
2018-10-18T18:16:53.077Z,50.43
2018-10-18T18:19:22.464Z,49.77
2018-10-18T18:21:51.431Z,51.93
2018-10-18T18:24:20.390Z,50.47
2018-10-18T18:26:49.721Z,51.50
2018-10-18T18:29:18.661Z,49.90
2018-10-18T18:31:47.538Z,51.57
2018-10-18T18:34:16.407Z,48.17
2018-10-18T18:36:45.282Z,51.13
2018-10-18T18:39:14.139Z,49.23
2018-10-18T18:41:43.027Z,51.57
2018-10-18T18:44:11.904Z,50.43
2018-10-18T18:46:40.771Z,50.40
2018-10-18T18:49:09.787Z,47.10
2018-10-18T18:51:39.086Z,48.70
2018-10-18T18:54:08.067Z,47.23
2018-10-18T18:56:36.988Z,47.20
2018-10-18T18:59:09.958Z,50.93
2018-10-18T19:01:42.504Z,50.10
2018-10-18T19:04:12.477Z,50.63
2018-10-18T19:06:43.132Z,50.53
2018-10-18T19:09:12.866Z,47.37
2018-10-18T19:11:42.016Z,48.20
2018-10-18T19:14:11.279Z,46.90
2018-10-18T19:16:40.375Z,46.80
2018-10-18T19:19:09.463Z,45.70
2018-10-18T19:21:38.392Z,52.37
2018-10-18T19:24:07.280Z,47.23
2018-10-18T19:26:36.239Z,48.53
2018-10-18T19:29:05.160Z,51.07
2018-10-18T19:31:34.079Z,49.70
2018-10-18T19:34:03.175Z,47.47
2018-10-18T19:36:32.113Z,48.20
2018-10-18T19:39:02.066Z,47.60
2018-10-18T19:41:30.940Z,47.77
2018-10-18T19:43:59.914Z,47.33
2018-10-18T19:46:29.209Z,45.97
2018-10-18T19:48:58.899Z,44.23
2018-10-18T19:51:27.882Z,45.40
2018-10-18T19:53:56.907Z,47.50
2018-10-18T19:56:26.647Z,44.67
2018-10-18T19:58:56.483Z,46.37
2018-10-18T20:01:25.358Z,45.77
2018-10-18T20:03:54.325Z,44.60
2018-10-18T20:06:23.770Z,41.33
2018-10-18T20:08:52.602Z,47.43
2018-10-18T20:11:21.581Z,41.83
2018-10-18T20:13:50.914Z,45.07
2018-10-18T20:16:20.601Z,46.97
2018-10-18T20:18:49.488Z,45.80
2018-10-18T20:21:18.368Z,46.43
2018-10-18T20:23:47.339Z,47.37
2018-10-18T20:26:16.342Z,47.63
2018-10-18T20:28:45.036Z,48.27
2018-10-18T20:31:13.879Z,44.80
2018-10-18T20:33:42.747Z,46.70
2018-10-18T20:36:11.639Z,43.97
2018-10-18T20:38:40.499Z,42.10
2018-10-18T20:41:09.446Z,46.10
2018-10-18T20:43:38.329Z,42.97
2018-10-18T20:46:07.185Z,45.10
2018-10-18T20:48:36.063Z,42.73
2018-10-18T20:51:05.248Z,44.27
2018-10-18T20:53:34.198Z,45.13
2018-10-18T20:56:03.396Z,41.93
2018-10-18T20:58:32.440Z,43.67
2018-10-18T21:01:01.973Z,41.67
2018-10-18T21:03:30.861Z,39.73
2018-10-18T21:05:59.752Z,40.70
2018-10-18T21:08:28.560Z,38.43
2018-10-18T21:10:57.414Z,39.83
2018-10-18T21:13:26.326Z,42.50
2018-10-18T21:15:55.251Z,41.80
2018-10-18T21:18:24.090Z,40.80
2018-10-18T21:20:52.993Z,39.33
2018-10-18T21:23:21.895Z,38.53
2018-10-18T21:25:50.710Z,40.77
2018-10-18T21:28:19.547Z,42.63
2018-10-18T21:30:48.423Z,38.33
2018-10-18T21:33:17.353Z,41.10
2018-10-18T21:35:46.167Z,38.07
2018-10-18T21:38:15.019Z,39.90
2018-10-18T21:40:43.867Z,39.03
2018-10-18T21:43:12.830Z,37.43
2018-10-18T21:45:41.675Z,39.07
2018-10-18T21:48:10.547Z,36.93
2018-10-18T21:50:39.403Z,41.20
2018-10-18T21:53:08.350Z,39.40
2018-10-18T21:55:37.126Z,38.20
2018-10-18T21:58:06.034Z,39.40
2018-10-18T22:00:40.557Z,37.53
2018-10-18T22:03:09.584Z,37.00
2018-10-18T22:05:38.299Z,37.47
2018-10-18T22:08:07.179Z,38.70
2018-10-18T22:10:36.022Z,38.47
2018-10-18T22:13:05.015Z,36.07
2018-10-18T22:15:33.978Z,37.97
2018-10-18T22:18:02.932Z,39.70
2018-10-18T22:20:31.794Z,39.30
2018-10-18T22:23:00.742Z,39.07
2018-10-18T22:25:29.648Z,38.40
2018-10-18T22:27:58.536Z,36.80
2018-10-18T22:30:27.416Z,36.17
2018-10-18T22:32:56.268Z,37.10
2018-10-18T22:35:25.124Z,36.83
2018-10-18T22:37:53.953Z,38.13
2018-10-18T22:40:22.940Z,37.83
2018-10-18T22:42:51.915Z,39.53
2018-10-18T22:45:20.751Z,37.20
2018-10-18T22:47:49.605Z,38.73
2018-10-18T22:50:18.434Z,41.27
2018-10-18T22:52:47.401Z,40.17
2018-10-18T22:55:16.219Z,37.97
2018-10-18T22:57:45.063Z,42.27
2018-10-18T23:00:15.305Z,39.60
2018-10-18T23:02:44.203Z,41.80
2018-10-18T23:05:13.118Z,37.70
2018-10-18T23:07:41.879Z,40.73
2018-10-18T23:10:10.711Z,41.33
2018-10-18T23:12:39.627Z,38.37
2018-10-18T23:15:09.786Z,39.37
2018-10-18T23:17:38.889Z,40.90
2018-10-18T23:20:08.607Z,40.80
2018-10-18T23:22:37.462Z,41.90
2018-10-18T23:25:06.675Z,41.90
2018-10-18T23:27:35.535Z,41.73
2018-10-18T23:30:05.909Z,42.27
2018-10-18T23:32:34.971Z,43.73
2018-10-18T23:35:04.197Z,41.47
2018-10-18T23:37:33.040Z,39.07
2018-10-18T23:40:01.963Z,39.67
2018-10-18T23:42:30.851Z,40.23
2018-10-18T23:44:59.906Z,39.57
2018-10-18T23:47:28.774Z,37.73
2018-10-18T23:50:04.718Z,41.13
2018-10-18T23:52:33.826Z,38.77
2018-10-18T23:55:02.861Z,40.17
2018-10-18T23:57:31.670Z,39.50
